sensor_id;sensor_type;location;lat;lon;timestamp;pressure;altitude;pressure_sealevel;temperature;humidity
60307;BME280;46155;52.364;6.580;2023-04-03T03:01:37;102909.78;;;1.32;100.00
60307;BME280;46155;52.364;6.580;2023-04-03T03:04:03;102911.41;;;1.31;100.00
60307;BME280;46155;52.364;6.580;2023-04-03T03:06:28;102914.41;;;1.34;100.00
60307;BME280;46155;52.364;6.580;2023-04-03T03:08:53;102920.13;;;1.32;100.00
60307;BME280;46155;52.364;6.580;2023-04-03T03:11:19;102910.41;;;1.24;100.00
60307;BME280;46155;52.364;6.580;2023-04-03T03:13:44;102912.56;;;1.33;100.00
60307;BME280;46155;52.364;6.580;2023-04-03T03:16:10;102920.25;;;1.26;100.00
60307;BME280;46155;52.364;6.580;2023-04-03T03:18:36;102921.09;;;1.19;100.00
60307;BME280;46155;52.364;6.580;2023-04-03T03:21:02;102919.41;;;1.20;100.00
60307;BME280;46155;52.364;6.580;2023-04-03T03:23:29;102921.53;;;1.10;100.00
60307;BME280;46155;52.364;6.580;2023-04-03T03:26:00;102930.22;;;1.10;100.00
60307;BME280;46155;52.364;6.580;2023-04-03T03:28:26;102915.00;;;1.06;100.00
60307;BME280;46155;52.364;6.580;2023-04-03T03:30:51;102912.63;;;1.08;100.00
60307;BME280;46155;52.364;6.580;2023-04-03T03:33:17;102913.16;;;1.05;100.00
60307;BME280;46155;52.364;6.580;2023-04-03T03:35:43;102917.50;;;0.99;100.00
60307;BME280;46155;52.364;6.580;2023-04-03T03:38:09;102914.72;;;0.97;100.00
60307;BME280;46155;52.364;6.580;2023-04-03T03:40:35;102919.88;;;0.97;100.00
60307;BME280;46155;52.364;6.580;2023-04-03T03:43:00;102921.13;;;1.07;100.00
60307;BME280;46155;52.364;6.580;2023-04-03T03:45:26;102915.13;;;1.00;100.00
60307;BME280;46155;52.364;6.580;2023-04-03T03:47:51;102921.13;;;1.07;100.00
60307;BME280;46155;52.364;6.580;2023-04-03T03:50:17;102925.53;;;1.08;100.00
60307;BME280;46155;52.364;6.580;2023-04-03T03:52:42;102918.84;;;1.02;100.00
60307;BME280;46155;52.364;6.580;2023-04-03T03:55:08;102935.19;;;1.09;100.00
60307;BME280;46155;52.364;6.580;2023-04-03T03:57:33;102934.56;;;1.04;100.00
60307;BME280;46155;52.364;6.580;2023-04-03T03:59:58;102930.31;;;1.05;100.00
60307;BME280;46155;52.364;6.580;2023-04-03T04:02:23;102933.66;;;1.03;100.00
60307;BME280;46155;52.364;6.580;2023-04-03T04:04:49;102932.63;;;0.96;100.00
60307;BME280;46155;52.364;6.580;2023-04-03T04:07:14;102936.88;;;0.95;100.00
60307;BME280;46155;52.364;6.580;2023-04-03T04:09:40;102921.75;;;0.98;100.00
60307;BME280;46155;52.364;6.580;2023-04-03T04:12:06;102936.25;;;1.03;100.00
60307;BME280;46155;52.364;6.580;2023-04-03T04:14:31;102935.72;;;0.93;100.00
60307;BME280;46155;52.364;6.580;2023-04-03T04:16:57;102941.41;;;0.91;100.00
60307;BME280;46155;52.364;6.580;2023-04-03T04:19:22;102950.84;;;0.90;100.00
60307;BME280;46155;52.364;6.580;2023-04-03T04:21:47;102941.97;;;0.88;100.00
60307;BME280;46155;52.364;6.580;2023-04-03T04:24:13;102956.22;;;0.79;100.00
60307;BME280;46155;52.364;6.580;2023-04-03T04:26:39;102954.78;;;0.68;100.00
60307;BME280;46155;52.364;6.580;2023-04-03T04:29:04;102951.88;;;0.72;100.00
60307;BME280;46155;52.364;6.580;2023-04-03T04:31:29;102953.53;;;0.72;100.00
60307;BME280;46155;52.364;6.580;2023-04-03T04:33:54;102954.78;;;0.68;100.00
60307;BME280;46155;52.364;6.580;2023-04-03T04:36:20;102960.19;;;0.70;100.00
60307;BME280;46155;52.364;6.580;2023-04-03T04:38:45;102969.38;;;0.67;100.00
60307;BME280;46155;52.364;6.580;2023-04-03T04:41:10;102953.44;;;0.64;100.00
60307;BME280;46155;52.364;6.580;2023-04-03T04:43:36;102975.03;;;0.65;100.00
60307;BME280;46155;52.364;6.580;2023-04-03T04:46:07;102974.84;;;0.63;100.00
60307;BME280;46155;52.364;6.580;2023-04-03T04:48:33;102981.28;;;0.60;100.00
60307;BME280;46155;52.364;6.580;2023-04-03T04:50:59;102977.00;;;0.47;100.00
60307;BME280;46155;52.364;6.580;2023-04-03T04:53:24;102978.44;;;0.45;100.00
60307;BME280;46155;52.364;6.580;2023-04-03T04:55:49;102976.28;;;0.36;100.00
60307;BME280;46155;52.364;6.580;2023-04-03T04:58:15;102973.34;;;0.27;100.00
60307;BME280;46155;52.364;6.580;2023-04-03T05:00:41;102982.66;;;0.19;100.00
60307;BME280;46155;52.364;6.580;2023-04-03T05:03:06;102971.50;;;0.13;100.00
60307;BME280;46155;52.364;6.580;2023-04-03T05:05:31;102980.78;;;0.18;100.00
60307;BME280;46155;52.364;6.580;2023-04-03T05:07:57;102967.13;;;0.06;100.00
60307;BME280;46155;52.364;6.580;2023-04-03T05:10:22;102984.06;;;0.17;100.00
60307;BME280;46155;52.364;6.580;2023-04-03T05:12:47;102986.66;;;0.17;100.00
60307;BME280;46155;52.364;6.580;2023-04-03T05:15:13;102987.81;;;0.19;100.00
60307;BME280;46155;52.364;6.580;2023-04-03T05:17:38;102981.50;;;0.17;100.00
60307;BME280;46155;52.364;6.580;2023-04-03T05:20:04;102987.41;;;0.16;100.00
60307;BME280;46155;52.364;6.580;2023-04-03T05:22:30;102985.28;;;0.01;100.00
60307;BME280;46155;52.364;6.580;2023-04-03T05:24:55;102999.03;;;0.07;100.00
60307;BME280;46155;52.364;6.580;2023-04-03T05:27:21;102993.63;;;-0.08;100.00
60307;BME280;46155;52.364;6.580;2023-04-03T05:29:48;102998.69;;;-0.02;100.00
60307;BME280;46155;52.364;6.580;2023-04-03T05:32:13;103003.94;;;-0.08;100.00
60307;BME280;46155;52.364;6.580;2023-04-03T05:34:39;103007.03;;;-0.10;100.00
60307;BME280;46155;52.364;6.580;2023-04-03T05:37:04;103011.69;;;-0.08;100.00
60307;BME280;46155;52.364;6.580;2023-04-03T05:39:30;103011.41;;;-0.04;100.00
60307;BME280;46155;52.364;6.580;2023-04-03T05:41:56;103013.53;;;0.12;100.00
60307;BME280;46155;52.364;6.580;2023-04-03T05:44:21;103015.94;;;0.23;100.00
60307;BME280;46155;52.364;6.580;2023-04-03T05:46:47;103013.44;;;0.17;100.00
60307;BME280;46155;52.364;6.580;2023-04-03T05:49:12;103014.34;;;0.18;100.00
60307;BME280;46155;52.364;6.580;2023-04-03T05:51:38;103013.34;;;0.23;100.00
60307;BME280;46155;52.364;6.580;2023-04-03T05:54:14;103015.94;;;0.23;100.00
60307;BME280;46155;52.364;6.580;2023-04-03T05:56:41;103018.53;;;0.23;100.00
60307;BME280;46155;52.364;6.580;2023-04-03T05:59:07;103020.16;;;0.23;100.00
60307;BME280;46155;52.364;6.580;2023-04-03T06:01:32;103012.94;;;0.20;100.00
60307;BME280;46155;52.364;6.580;2023-04-03T06:03:59;103018.53;;;0.23;100.00
60307;BME280;46155;52.364;6.580;2023-04-03T06:06:24;103024.09;;;0.26;100.00
60307;BME280;46155;52.364;6.580;2023-04-03T06:08:50;103024.94;;;0.32;100.00
60307;BME280;46155;52.364;6.580;2023-04-03T06:11:16;103030.97;;;0.39;100.00
60307;BME280;46155;52.364;6.580;2023-04-03T06:13:41;103028.78;;;0.42;100.00
60307;BME280;46155;52.364;6.580;2023-04-03T06:16:10;103034.16;;;0.43;100.00
60307;BME280;46155;52.364;6.580;2023-04-03T06:18:36;103034.78;;;0.48;100.00
60307;BME280;46155;52.364;6.580;2023-04-03T06:21:02;103039.66;;;0.52;100.00
60307;BME280;46155;52.364;6.580;2023-04-03T06:23:28;103040.38;;;0.51;100.00
60307;BME280;46155;52.364;6.580;2023-04-03T06:25:53;103035.75;;;0.61;100.00
60307;BME280;46155;52.364;6.580;2023-04-03T06:28:19;103022.94;;;0.68;100.00
60307;BME280;46155;52.364;6.580;2023-04-03T06:30:45;103040.84;;;0.93;100.00
60307;BME280;46155;52.364;6.580;2023-04-03T06:33:10;103041.84;;;1.13;99.11
60307;BME280;46155;52.364;6.580;2023-04-03T06:35:36;103041.97;;;1.33;97.95
60307;BME280;46155;52.364;6.580;2023-04-03T06:38:03;103042.38;;;1.36;95.87
60307;BME280;46155;52.364;6.580;2023-04-03T06:40:34;103056.94;;;1.36;95.71
60307;BME280;46155;52.364;6.580;2023-04-03T06:42:59;103048.16;;;1.28;94.82
60307;BME280;46155;52.364;6.580;2023-04-03T06:45:25;103050.94;;;1.43;94.86
60307;BME280;46155;52.364;6.580;2023-04-03T06:47:51;103048.28;;;1.68;94.14
60307;BME280;46155;52.364;6.580;2023-04-03T06:50:16;103049.91;;;1.81;93.63
60307;BME280;46155;52.364;6.580;2023-04-03T06:52:41;103066.13;;;1.93;92.21
60307;BME280;46155;52.364;6.580;2023-04-03T06:55:07;103066.25;;;1.87;91.08
60307;BME280;46155;52.364;6.580;2023-04-03T06:57:34;103069.22;;;2.03;92.54
60307;BME280;46155;52.364;6.580;2023-04-03T07:00:00;103063.50;;;2.46;91.05
60307;BME280;46155;52.364;6.580;2023-04-03T07:02:25;103059.16;;;2.86;88.73
60307;BME280;46155;52.364;6.580;2023-04-03T07:04:51;103072.41;;;2.95;85.62
60307;BME280;46155;52.364;6.580;2023-04-03T07:07:16;103076.38;;;2.79;84.51
60307;BME280;46155;52.364;6.580;2023-04-03T07:09:42;103077.66;;;3.02;84.45
60307;BME280;46155;52.364;6.580;2023-04-03T07:12:08;103078.38;;;3.01;83.95
60307;BME280;46155;52.364;6.580;2023-04-03T07:14:33;103087.72;;;3.14;81.46
60307;BME280;46155;52.364;6.580;2023-04-03T07:16:58;103070.69;;;3.16;83.52
60307;BME280;46155;52.364;6.580;2023-04-03T07:19:24;103086.56;;;3.04;81.27
60307;BME280;46155;52.364;6.580;2023-04-03T07:21:52;103086.91;;;3.27;81.88
60307;BME280;46155;52.364;6.580;2023-04-03T07:24:17;103080.53;;;3.60;80.23
60307;BME280;46155;52.364;6.580;2023-04-03T07:26:43;103092.78;;;3.61;79.67
60307;BME280;46155;52.364;6.580;2023-04-03T07:29:10;103087.59;;;3.61;78.27
60307;BME280;46155;52.364;6.580;2023-04-03T07:31:35;103091.53;;;3.30;77.92
60307;BME280;46155;52.364;6.580;2023-04-03T07:34:02;103094.94;;;3.43;78.40
60307;BME280;46155;52.364;6.580;2023-04-03T07:36:27;103097.34;;;3.91;78.33
60307;BME280;46155;52.364;6.580;2023-04-03T07:38:52;103101.50;;;4.10;74.32
60307;BME280;46155;52.364;6.580;2023-04-03T07:41:19;103106.66;;;3.96;72.18
60307;BME280;46155;52.364;6.580;2023-04-03T07:43:45;103091.81;;;4.02;71.14
60307;BME280;46155;52.364;6.580;2023-04-03T07:46:12;103108.16;;;4.01;71.33
60307;BME280;46155;52.364;6.580;2023-04-03T07:48:37;103103.91;;;3.60;72.32
60307;BME280;46155;52.364;6.580;2023-04-03T07:51:04;103106.56;;;3.33;73.93
60307;BME280;46155;52.364;6.580;2023-04-03T07:53:31;103090.41;;;3.70;74.58
60307;BME280;46155;52.364;6.580;2023-04-03T07:55:58;103109.09;;;4.02;72.75
60307;BME280;46155;52.364;6.580;2023-04-03T07:58:23;103105.63;;;4.16;72.60
60307;BME280;46155;52.364;6.580;2023-04-03T08:00:49;103100.75;;;4.04;71.67
60307;BME280;46155;52.364;6.580;2023-04-03T08:03:15;103112.91;;;3.76;69.99
60307;BME280;46155;52.364;6.580;2023-04-03T08:05:45;103116.19;;;3.68;69.04
60307;BME280;46155;52.364;6.580;2023-04-03T08:08:14;103115.66;;;3.71;68.53
60307;BME280;46155;52.364;6.580;2023-04-03T08:10:40;103111.16;;;4.04;67.13
60307;BME280;46155;52.364;6.580;2023-04-03T08:13:07;103110.09;;;4.38;66.78
60307;BME280;46155;52.364;6.580;2023-04-03T08:15:32;103116.06;;;4.80;66.44
60307;BME280;46155;52.364;6.580;2023-04-03T08:17:59;103121.06;;;4.79;65.79
60307;BME280;46155;52.364;6.580;2023-04-03T08:20:24;103124.22;;;4.55;66.66
60307;BME280;46155;52.364;6.580;2023-04-03T08:22:50;103118.28;;;4.34;64.85
60307;BME280;46155;52.364;6.580;2023-04-03T08:25:15;103119.94;;;4.41;61.95
60307;BME280;46155;52.364;6.580;2023-04-03T08:27:42;103121.63;;;4.47;62.06
60307;BME280;46155;52.364;6.580;2023-04-03T08:30:08;103119.75;;;5.04;63.55
60307;BME280;46155;52.364;6.580;2023-04-03T08:32:34;103124.16;;;5.34;61.78
60307;BME280;46155;52.364;6.580;2023-04-03T08:35:01;103126.03;;;5.42;60.41
60307;BME280;46155;52.364;6.580;2023-04-03T08:37:26;103130.56;;;4.93;57.20
60307;BME280;46155;52.364;6.580;2023-04-03T08:39:51;103127.41;;;4.95;59.09
60307;BME280;46155;52.364;6.580;2023-04-03T08:44:59;103128.88;;;5.15;59.23
60307;BME280;46155;52.364;6.580;2023-04-03T08:47:38;103124.31;;;5.43;64.84
60307;BME280;46155;52.364;6.580;2023-04-03T08:50:07;103134.88;;;5.66;58.22
60307;BME280;46155;52.364;6.580;2023-04-03T08:58:07;103127.69;;;5.94;50.62
60307;BME280;46155;52.364;6.580;2023-04-03T09:00:51;103128.88;;;5.81;49.47
60307;BME280;46155;52.364;6.580;2023-04-03T09:03:19;103123.88;;;5.76;48.60
60307;BME280;46155;52.364;6.580;2023-04-03T09:08:23;103129.91;;;6.35;47.62
60307;BME280;46155;52.364;6.580;2023-04-03T09:11:08;103138.56;;;6.50;47.84
60307;BME280;46155;52.364;6.580;2023-04-03T09:13:50;103133.88;;;6.25;49.03
60307;BME280;46155;52.364;6.580;2023-04-03T09:24:38;103121.00;;;6.26;46.15
60307;BME280;46155;52.364;6.580;2023-04-03T09:27:06;103133.97;;;6.10;42.36
60307;BME280;46155;52.364;6.580;2023-04-03T09:29:36;103127.03;;;6.48;43.78
60307;BME280;46155;52.364;6.580;2023-04-03T09:32:18;103125.78;;;6.37;42.06
60307;BME280;46155;52.364;6.580;2023-04-03T09:34:46;103112.22;;;6.56;43.10
60307;BME280;46155;52.364;6.580;2023-04-03T09:37:33;103115.03;;;6.81;42.97
60307;BME280;46155;52.364;6.580;2023-04-03T09:40:00;103120.38;;;6.66;42.30
60307;BME280;46155;52.364;6.580;2023-04-03T09:42:26;103118.59;;;6.97;42.40
60307;BME280;46155;52.364;6.580;2023-04-03T09:45:04;103125.22;;;7.26;40.37
60307;BME280;46155;52.364;6.580;2023-04-03T09:47:32;103113.69;;;7.23;42.01
60307;BME280;46155;52.364;6.580;2023-04-03T09:50:18;103106.84;;;7.33;38.78
60307;BME280;46155;52.364;6.580;2023-04-03T09:52:49;103105.34;;;7.19;40.64
60307;BME280;46155;52.364;6.580;2023-04-03T09:55:24;103101.88;;;7.11;41.84
60307;BME280;46155;52.364;6.580;2023-04-03T09:58:04;103103.25;;;7.23;41.03
60307;BME280;46155;52.364;6.580;2023-04-03T10:00:35;103099.47;;;7.45;42.24
60307;BME280;46155;52.364;6.580;2023-04-03T10:03:02;103104.84;;;7.46;40.86
60307;BME280;46155;52.364;6.580;2023-04-03T10:05:38;103096.63;;;7.11;41.28
60307;BME280;46155;52.364;6.580;2023-04-03T10:10:42;103107.66;;;6.93;41.62
60307;BME280;46155;52.364;6.580;2023-04-03T10:13:14;103092.88;;;7.32;42.07
60307;BME280;46155;52.364;6.580;2023-04-03T10:18:46;103095.81;;;7.35;41.32
60307;BME280;46155;52.364;6.580;2023-04-03T10:24:44;103080.22;;;6.96;43.72
60307;BME280;46155;52.364;6.580;2023-04-03T10:27:33;103083.16;;;7.15;42.64
60307;BME280;46155;52.364;6.580;2023-04-03T10:31:01;103083.78;;;7.45;40.62
60307;BME280;46155;52.364;6.580;2023-04-03T10:39:01;103071.84;;;7.87;42.66
60307;BME280;46155;52.364;6.580;2023-04-03T10:46:47;103074.91;;;7.03;40.97
60307;BME280;46155;52.364;6.580;2023-04-03T10:49:35;103064.97;;;7.08;42.05
60307;BME280;46155;52.364;6.580;2023-04-03T10:52:15;103061.69;;;7.18;42.63
60307;BME280;46155;52.364;6.580;2023-04-03T10:54:49;103059.91;;;7.26;41.94
60307;BME280;46155;52.364;6.580;2023-04-03T10:57:21;103060.69;;;7.40;43.59
60307;BME280;46155;52.364;6.580;2023-04-03T10:59:50;103060.59;;;7.32;42.05
60307;BME280;46155;52.364;6.580;2023-04-03T11:02:23;103058.50;;;7.36;43.19
60307;BME280;46155;52.364;6.580;2023-04-03T11:04:53;103061.53;;;7.16;40.60
60307;BME280;46155;52.364;6.580;2023-04-03T11:07:26;103055.84;;;7.52;43.04
60307;BME280;46155;52.364;6.580;2023-04-03T11:09:55;103051.41;;;7.51;41.71
60307;BME280;46155;52.364;6.580;2023-04-03T11:14:58;103054.28;;;7.46;41.97
60307;BME280;46155;52.364;6.580;2023-04-03T11:17:34;103056.38;;;7.09;42.25
60307;BME280;46155;52.364;6.580;2023-04-03T11:20:14;103066.50;;;7.38;43.06
60307;BME280;46155;52.364;6.580;2023-04-03T11:22:45;103038.47;;;7.69;45.26
60307;BME280;46155;52.364;6.580;2023-04-03T11:27:44;103039.00;;;7.57;41.98
60307;BME280;46155;52.364;6.580;2023-04-03T11:30:19;103028.34;;;7.72;44.68
60307;BME280;46155;52.364;6.580;2023-04-03T11:35:30;103020.22;;;8.27;42.06
60307;BME280;46155;52.364;6.580;2023-04-03T11:37:57;103021.50;;;8.06;41.77
60307;BME280;46155;52.364;6.580;2023-04-03T11:40:28;103019.41;;;7.70;41.94
60307;BME280;46155;52.364;6.580;2023-04-03T11:43:17;103016.41;;;7.10;43.72
60307;BME280;46155;52.364;6.580;2023-04-03T11:51:02;102999.25;;;7.93;44.26
60307;BME280;46155;52.364;6.580;2023-04-03T11:53:39;102997.66;;;8.12;44.63
60307;BME280;46155;52.364;6.580;2023-04-03T12:04:19;103009.03;;;8.37;43.29
60307;BME280;46155;52.364;6.580;2023-04-03T12:09:54;103007.81;;;7.43;43.25
60307;BME280;46155;52.364;6.580;2023-04-03T12:12:38;103007.16;;;7.53;44.27
60307;BME280;46155;52.364;6.580;2023-04-03T12:15:20;102999.25;;;7.69;44.13
60307;BME280;46155;52.364;6.580;2023-04-03T12:17:46;102999.19;;;7.85;44.15
60307;BME280;46155;52.364;6.580;2023-04-03T12:20:52;103004.47;;;7.93;43.91
60307;BME280;46155;52.364;6.580;2023-04-03T12:23:27;102994.25;;;8.04;43.42
60307;BME280;46155;52.364;6.580;2023-04-03T12:26:00;102984.53;;;7.78;42.99
60307;BME280;46155;52.364;6.580;2023-04-03T12:28:28;102986.34;;;7.46;43.75
60307;BME280;46155;52.364;6.580;2023-04-03T12:30:53;102981.13;;;7.70;44.02
60307;BME280;46155;52.364;6.580;2023-04-03T12:33:36;102989.81;;;7.62;44.41
60307;BME280;46155;52.364;6.580;2023-04-03T12:36:13;102973.00;;;7.35;44.06
60307;BME280;46155;52.364;6.580;2023-04-03T12:39:13;102978.66;;;7.47;45.32
60307;BME280;46155;52.364;6.580;2023-04-03T12:41:56;102975.72;;;7.69;44.83
60307;BME280;46155;52.364;6.580;2023-04-03T12:44:45;102990.94;;;7.48;43.39
60307;BME280;46155;52.364;6.580;2023-04-03T12:47:36;102960.56;;;7.57;44.42
60307;BME280;46155;52.364;6.580;2023-04-03T12:50:13;102972.34;;;7.70;45.35
60307;BME280;46155;52.364;6.580;2023-04-03T12:52:46;102955.44;;;7.75;45.76
60307;BME280;46155;52.364;6.580;2023-04-03T12:55:17;102956.59;;;7.61;44.29
60307;BME280;46155;52.364;6.580;2023-04-03T12:57:42;102956.72;;;7.38;46.35
60307;BME280;46155;52.364;6.580;2023-04-03T13:00:22;102935.66;;;7.61;46.77
60307;BME280;46155;52.364;6.580;2023-04-03T13:02:47;102946.47;;;7.64;47.44
60307;BME280;46155;52.364;6.580;2023-04-03T13:05:17;102957.75;;;7.72;46.23
60307;BME280;46155;52.364;6.580;2023-04-03T13:07:43;102940.34;;;7.72;46.42
60307;BME280;46155;52.364;6.580;2023-04-03T13:12:44;102929.47;;;7.76;45.27
60307;BME280;46155;52.364;6.580;2023-04-03T13:15:17;102927.81;;;7.77;44.88
60307;BME280;46155;52.364;6.580;2023-04-03T13:17:45;102925.25;;;7.95;46.92
60307;BME280;46155;52.364;6.580;2023-04-03T13:20:19;102937.03;;;8.07;46.44
60307;BME280;46155;52.364;6.580;2023-04-03T13:22:52;102937.03;;;7.82;46.53
60307;BME280;46155;52.364;6.580;2023-04-03T13:25:20;102912.66;;;7.66;47.46
60307;BME280;46155;52.364;6.580;2023-04-03T13:27:46;102915.72;;;7.62;47.21
60307;BME280;46155;52.364;6.580;2023-04-03T13:30:21;102922.53;;;7.68;47.29
60307;BME280;46155;52.364;6.580;2023-04-03T13:32:48;102916.06;;;7.73;47.56
60307;BME280;46155;52.364;6.580;2023-04-03T13:35:33;102932.44;;;7.80;45.52
60307;BME280;46155;52.364;6.580;2023-04-03T13:38:02;102922.00;;;7.88;48.15
60307;BME280;46155;52.364;6.580;2023-04-03T13:40:28;102934.50;;;7.91;45.88
60307;BME280;46155;52.364;6.580;2023-04-03T13:43:02;102921.34;;;7.82;46.67
60307;BME280;46155;52.364;6.580;2023-04-03T13:45:30;102908.78;;;7.87;46.95
60307;BME280;46155;52.364;6.580;2023-04-03T13:48:16;102928.00;;;7.87;45.43
60307;BME280;46155;52.364;6.580;2023-04-03T13:50:57;102930.81;;;7.64;45.78
60307;BME280;46155;52.364;6.580;2023-04-03T13:53:24;102912.22;;;7.45;45.56
60307;BME280;46155;52.364;6.580;2023-04-03T13:58:24;102910.47;;;7.62;47.33
60307;BME280;46155;52.364;6.580;2023-04-03T14:03:44;102911.59;;;7.97;47.01
60307;BME280;46155;52.364;6.580;2023-04-03T14:06:16;102893.88;;;7.95;47.25
60307;BME280;46155;52.364;6.580;2023-04-03T14:08:42;102892.06;;;7.69;46.29
60307;BME280;46155;52.364;6.580;2023-04-03T14:11:13;102897.97;;;7.84;45.55
60307;BME280;46155;52.364;6.580;2023-04-03T14:13:39;102898.66;;;7.99;47.12
60307;BME280;46155;52.364;6.580;2023-04-03T14:16:04;102898.72;;;8.16;47.09
60307;BME280;46155;52.364;6.580;2023-04-03T14:18:30;102897.78;;;8.07;45.81
60307;BME280;46155;52.364;6.580;2023-04-03T14:20:55;102888.84;;;8.14;46.61
60307;BME280;46155;52.364;6.580;2023-04-03T14:23:20;102894.34;;;7.99;45.58
60307;BME280;46155;52.364;6.580;2023-04-03T14:25:46;102890.81;;;7.99;45.99
60307;BME280;46155;52.364;6.580;2023-04-03T14:28:17;102883.88;;;7.99;46.79
60307;BME280;46155;52.364;6.580;2023-04-03T14:30:44;102887.59;;;8.01;46.86
60307;BME280;46155;52.364;6.580;2023-04-03T14:33:16;102892.88;;;8.10;46.75
60307;BME280;46155;52.364;6.580;2023-04-03T14:35:42;102888.84;;;8.05;46.02
60307;BME280;46155;52.364;6.580;2023-04-03T14:38:25;102878.50;;;7.64;46.44
60307;BME280;46155;52.364;6.580;2023-04-03T14:40:52;102879.78;;;7.76;48.83
60307;BME280;46155;52.364;6.580;2023-04-03T14:43:17;102879.25;;;7.97;47.77
60307;BME280;46155;52.364;6.580;2023-04-03T14:45:43;102875.56;;;7.95;46.34
60307;BME280;46155;52.364;6.580;2023-04-03T14:48:16;102878.06;;;8.02;46.81
60307;BME280;46155;52.364;6.580;2023-04-03T14:50:43;102882.50;;;7.94;47.62
60307;BME280;46155;52.364;6.580;2023-04-03T14:53:10;102878.22;;;8.03;46.64
60307;BME280;46155;52.364;6.580;2023-04-03T14:55:36;102865.44;;;8.06;47.14
60307;BME280;46155;52.364;6.580;2023-04-03T14:58:02;102872.69;;;8.09;47.49
60307;BME280;46155;52.364;6.580;2023-04-03T15:00:27;102866.56;;;8.17;46.96
60307;BME280;46155;52.364;6.580;2023-04-03T15:02:53;102869.81;;;8.23;46.42
60307;BME280;46155;52.364;6.580;2023-04-03T15:05:18;102851.59;;;8.07;46.65
60307;BME280;46155;52.364;6.580;2023-04-03T15:07:50;102862.22;;;8.09;46.06
60307;BME280;46155;52.364;6.580;2023-04-03T15:10:19;102850.75;;;7.82;46.88
60307;BME280;46155;52.364;6.580;2023-04-03T15:12:46;102863.88;;;7.91;46.70
60307;BME280;46155;52.364;6.580;2023-04-03T15:15:13;102856.47;;;7.87;46.23
60307;BME280;46155;52.364;6.580;2023-04-03T15:17:39;102861.34;;;7.84;48.02
60307;BME280;46155;52.364;6.580;2023-04-03T15:20:12;102860.00;;;7.87;47.44
60307;BME280;46155;52.364;6.580;2023-04-03T15:22:38;102855.38;;;7.85;47.56
60307;BME280;46155;52.364;6.580;2023-04-03T15:25:04;102839.84;;;7.86;48.29
60307;BME280;46155;52.364;6.580;2023-04-03T15:27:30;102861.19;;;7.82;47.73
60307;BME280;46155;52.364;6.580;2023-04-03T15:29:55;102864.72;;;7.74;46.37
60307;BME280;46155;52.364;6.580;2023-04-03T15:32:20;102856.97;;;7.67;46.65
60307;BME280;46155;52.364;6.580;2023-04-03T15:34:46;102858.19;;;7.62;46.73
60307;BME280;46155;52.364;6.580;2023-04-03T15:37:11;102857.53;;;7.55;45.73
60307;BME280;46155;52.364;6.580;2023-04-03T15:39:36;102855.97;;;7.49;46.40
60307;BME280;46155;52.364;6.580;2023-04-03T15:42:02;102847.69;;;7.53;45.99
60307;BME280;46155;52.364;6.580;2023-04-03T15:44:34;102851.47;;;7.72;47.08
60307;BME280;46155;52.364;6.580;2023-04-03T15:47:00;102852.75;;;7.85;46.04
60307;BME280;46155;52.364;6.580;2023-04-03T15:49:26;102853.34;;;7.82;45.95
60307;BME280;46155;52.364;6.580;2023-04-03T15:51:52;102849.84;;;7.90;47.16
60307;BME280;46155;52.364;6.580;2023-04-03T15:54:17;102851.13;;;8.03;47.23
60307;BME280;46155;52.364;6.580;2023-04-03T15:56:43;102848.38;;;8.01;46.74
60307;BME280;46155;52.364;6.580;2023-04-03T15:59:08;102848.81;;;7.97;45.80
60307;BME280;46155;52.364;6.580;2023-04-03T16:01:34;102845.72;;;7.92;46.30
60307;BME280;46155;52.364;6.580;2023-04-03T16:04:00;102853.19;;;7.81;44.62
60307;BME280;46155;52.364;6.580;2023-04-03T16:06:25;102845.63;;;7.75;45.35
60307;BME280;46155;52.364;6.580;2023-04-03T16:08:51;102845.75;;;7.68;44.96
60307;BME280;46155;52.364;6.580;2023-04-03T16:11:16;102843.03;;;7.75;45.41
60307;BME280;46155;52.364;6.580;2023-04-03T16:13:42;102850.09;;;7.76;45.50
60307;BME280;46155;52.364;6.580;2023-04-03T16:16:07;102831.84;;;7.85;46.64
60307;BME280;46155;52.364;6.580;2023-04-03T16:18:34;102844.19;;;7.95;46.76
60307;BME280;46155;52.364;6.580;2023-04-03T16:21:00;102833.84;;;7.87;46.12
60307;BME280;46155;52.364;6.580;2023-04-03T16:23:25;102839.34;;;7.73;44.79
60307;BME280;46155;52.364;6.580;2023-04-03T16:25:51;102836.28;;;7.77;46.67
60307;BME280;46155;52.364;6.580;2023-04-03T16:28:17;102834.00;;;7.89;45.88
60307;BME280;46155;52.364;6.580;2023-04-03T16:30:44;102838.19;;;7.96;46.28
60307;BME280;46155;52.364;6.580;2023-04-03T16:33:11;102836.66;;;7.98;46.28
60307;BME280;46155;52.364;6.580;2023-04-03T16:35:37;102839.28;;;8.06;46.14
60307;BME280;46155;52.364;6.580;2023-04-03T16:38:02;102836.03;;;7.91;45.73
60307;BME280;46155;52.364;6.580;2023-04-03T16:40:28;102834.28;;;7.83;45.40
60307;BME280;46155;52.364;6.580;2023-04-03T16:42:53;102829.44;;;7.62;44.80
60307;BME280;46155;52.364;6.580;2023-04-03T16:45:18;102834.78;;;7.54;45.30
60307;BME280;46155;52.364;6.580;2023-04-03T16:47:44;102845.19;;;7.46;45.05
60307;BME280;46155;52.364;6.580;2023-04-03T16:50:10;102834.34;;;7.34;45.26
60307;BME280;46155;52.364;6.580;2023-04-03T16:52:35;102834.84;;;7.38;45.76
60307;BME280;46155;52.364;6.580;2023-04-03T16:55:01;102835.63;;;7.37;45.43
60307;BME280;46155;52.364;6.580;2023-04-03T16:57:27;102834.34;;;7.34;45.86
60307;BME280;46155;52.364;6.580;2023-04-03T16:59:52;102837.41;;;7.30;45.83
60307;BME280;46155;52.364;6.580;2023-04-03T17:02:20;102826.34;;;7.32;46.31
60307;BME280;46155;52.364;6.580;2023-04-03T17:04:45;102822.91;;;7.49;48.01
60307;BME280;46155;52.364;6.580;2023-04-03T17:07:11;102821.59;;;7.62;47.83
60307;BME280;46155;52.364;6.580;2023-04-03T17:09:36;102817.88;;;7.59;46.85
60307;BME280;46155;52.364;6.580;2023-04-03T17:12:03;102824.72;;;7.41;46.29
60307;BME280;46155;52.364;6.580;2023-04-03T17:14:28;102825.75;;;7.35;45.30
60307;BME280;46155;52.364;6.580;2023-04-03T17:16:53;102823.25;;;7.28;45.63